메인 페이지
METAR-TAF:

METAR-TAF

공항 :

Rosecrans Memorial Airport

Saint Joseph, 미주리, 미국

위도: 39-46-05N, 경도: 094-54-33W, 고도: 251m

현재 날씨관측

예보는 1 시간 2분 전, 15:53시(UTC)에 발표되었습니다.
동남동7kt
온도 10°C
습도 62%
기압 1020 hPa
시정: 16.1km
맑음

METAR: KSTJ 051553Z 11007KT 10SM CLR 10/03 A3012 RMK AO2 SLP202 T01000028

시각: 11:55 (16:55 UTC)

예보

예보는 5 시간 32분 전, 11:23시(UTC)에 발표되었습니다.
예보 대상 시간: 05일 12시부터 06일 12시까지 (UTC)
여러 방향의 바람 1kt
시정: 3.2km
맑음
박무
일시적
05일 12시부터 05일 14시까지 (UTC)
시정: 0.8km
어는 안개
05일 1400시부터 (UTC)
남남동9kt
시정: 10km
고도 2500ft 상공 구름 보통
고도 3500ft 상공 구름 많음
06일 0400시부터 (UTC)
남남동7kt
시정: 9.7km
고도 2000ft 상공 구름 많음
박무, 시계 내 소나기

TAF: KSTJ 051123Z 0512/0612 VRB01KT 2SM BR SKC TEMPO 0512/0514 1/2SM FZFG FM051400 15009KT P6SM SCT025 BKN035 FM060400 16007KT 6SM BR VCSH BKN020

4,000개 이상의 공항 관측 자료 및 예보 (METAR 및 TAF 보고).

지도상에서 검색 가능한 기상관측소가 노란 점과 빨간 점으로 표시되어 있습니다.

기상관측소 명을 보려면 표시 위로 마우스를 이동하세요.

날씨 관측과 예보를 보려면 클릭하세요.

지도 변경 : 확대하려면 엑스 표시가 있는 녹색 버튼, 축소하려면 빼기 표시가 있는 녹색 버튼, 다음 페이지의 지도를 보려면 녹색 화살표를 클릭하세요.


METAR-TAF: